Terminal Aerodrome Forecast
Issued by NWS Boise, ID

Home | Current Version | Previous Version | Text Only | Print | Product List | Glossary On
Versions: 1 2 3 4 5 6 7 8 9 10 11 12 13 14 15 16 17 18 19 20 21 22 23 24 25 26 27 28 29 30 31 32 33
000
FTUS45 KBOI 262320
TAFBNO
TAF
KBNO 262320Z 2700/2724 28008KT P6SM FEW080
     FM270600 VRB04KT P6SM SCT200
     FM272100 23006G12KT P6SM BKN150=

USA.gov is the U.S. government's official web portal to all federal, state and local government web resources and services.